Scott City, MO

7:29 AM CDT on October 24, 2014 (GMT -0500)
Cape Girardeau Regional | Change Station
CLOSE
Current Station
Airport
Location: Cape Girardeau,
Elevation: 341 ft
Nearby Weather Stations

Elev 341 ft 37.23 °N, 89.57 °W | Updated 36 minutes ago

Overcast
Overcast
50 °F
Feels Like 50 °F
N
0
Wind Variable Wind from North

Today
High -- | Low -- °F
--% Chance of Precip.
Yesterday
High -- | Low -- °F
Precip. -- in
7:14 AM 6:09 PM
New Moon, 0% visible
Pressure 30.14 in
Visibility 8.0 miles
Clouds Overcast 2400 ft
Dew Point 48 °F
Humidity 93%
Rainfall 0.00 in
Snow Depth Not available.
UV 0 out of 12
Pollen 1.80 out of 12
Air Quality Not available.
Flu Activity No Activity
METAR KCGI 241153Z AUTO 00000KT 8SM OVC024 10/09 A3013 RMK AO2 SLP204 T01000089 10100 20056 53003 TSNO

More Conditions Fewer Conditions

Pressure 30.14 in
Visibility 8.0 miles
Clouds Overcast 2400 ft
Dew Point 48 °F
Humidity 93%
Rainfall 0.00 in
Snow Depth Not available.
UV 0 out of 12
Pollen 1.80 out of 12
Air Quality Not available.
Flu Activity No Activity
METAR KCGI 241153Z AUTO 00000KT 8SM OVC024 10/09 A3013 RMK AO2 SLP204 T01000089 10100 20056 53003 TSNO

More Conditions Fewer Conditions

10-Day Weather Forecast

Almanac

Astronomy

Oct. 24, 2014 Rise Set
Actual Time 7:14 AM CDT 6:09 PM CDT
Civil Twilight 6:48 AM CDT 6:36 PM CDT
Nautical Twilight 6:17 AM CDT 7:06 PM CDT
Astronomical Twilight 5:47 AM CDT 7:36 PM CDT
Moon 7:53 AM CDT 6:50 PM CDT
Length of Visible Light 11h 48m
Length of Day
10h 54m
Tomorrow will be 2m 12s shorter.
New Moon, 0% of the Moon is Illuminated
Today
New Moon
Oct 30
First Quarter
Nov 6
Full
Nov 14
Last Quarter
Nov 22
New

Today's Extremes

State Highs State Lows

Community

WunderPhotos

Upload Photos

1,764,533 photos uploaded!

Nearby

Snow Depth

Station Depth Elevation
No new snow has been reported.

Earthquake Activity

City Distance Mag. Time & Date
No recent earthquake activity has been reported nearby.
Minimum magnitude displayed is 2.5.

Coastal Water Temperatures

Place Temperature
No Stations Reporting

Nearby Weather Stations